createdAt,value
2022-12-11T00:01:13.304Z,171.00
2022-12-11T00:03:42.054Z,166.33
2022-12-11T00:06:12.328Z,171.83
2022-12-11T00:08:40.883Z,160.80
2022-12-11T00:11:12.767Z,181.50
2022-12-11T00:13:41.387Z,178.00
2022-12-11T00:16:10.440Z,174.33
2022-12-11T00:18:39.196Z,159.73
2022-12-11T00:21:09.701Z,161.20
2022-12-11T00:23:38.663Z,156.40
2022-12-11T00:26:08.066Z,164.30
2022-12-11T00:28:37.878Z,173.23
2022-12-11T00:31:07.536Z,176.03
2022-12-11T00:33:36.261Z,177.33
2022-12-11T00:36:04.891Z,178.77
2022-12-11T00:38:33.469Z,169.57
2022-12-11T00:41:02.678Z,171.43
2022-12-11T00:43:31.347Z,172.20
2022-12-11T00:46:01.061Z,172.83
2022-12-11T00:48:29.407Z,162.63
2022-12-11T00:50:58.027Z,174.43
2022-12-11T00:53:26.406Z,175.27
2022-12-11T00:55:54.711Z,163.60
2022-12-11T00:58:23.384Z,166.90
2022-12-11T01:00:52.074Z,165.80
2022-12-11T01:03:21.866Z,157.33
2022-12-11T01:05:54.239Z,165.57
2022-12-11T01:08:23.380Z,159.03
2022-12-11T01:10:50.874Z,159.97
2022-12-11T01:13:19.464Z,162.10
2022-12-11T01:15:47.725Z,150.17
2022-12-11T01:18:16.718Z,156.57
2022-12-11T01:20:46.225Z,138.87
2022-12-11T01:23:15.308Z,144.63
2022-12-11T01:25:44.467Z,138.47
2022-12-11T01:28:12.817Z,136.53
2022-12-11T01:30:43.608Z,125.17
2022-12-11T01:33:12.426Z,117.33
2022-12-11T01:35:41.179Z,121.77
2022-12-11T01:38:11.551Z,118.37
2022-12-11T01:40:39.963Z,107.70
2022-12-11T01:43:12.482Z,108.43
2022-12-11T01:45:41.911Z,112.47
2022-12-11T01:48:13.476Z,108.87
2022-12-11T01:50:45.666Z,112.33
2022-12-11T01:53:20.722Z,107.33
2022-12-11T01:55:52.171Z,111.00
2022-12-11T01:58:23.422Z,110.60
2022-12-11T02:00:53.621Z,111.77
2022-12-11T02:03:22.586Z,113.10
2022-12-11T02:05:51.040Z,112.60
2022-12-11T02:08:21.811Z,116.80
2022-12-11T02:11:05.268Z,113.13
2022-12-11T02:13:40.474Z,117.73
2022-12-11T02:16:14.341Z,115.70
2022-12-11T02:18:49.787Z,115.73
2022-12-11T02:21:23.706Z,120.10
2022-12-11T02:24:20.296Z,119.83
2022-12-11T02:27:23.055Z,122.73
2022-12-11T02:29:58.415Z,118.80
2022-12-11T02:32:32.689Z,127.83
2022-12-11T02:35:07.199Z,122.60
2022-12-11T02:37:38.875Z,121.27
2022-12-11T02:40:12.230Z,123.77
2022-12-11T02:42:43.598Z,122.83
2022-12-11T02:45:15.375Z,122.50
2022-12-11T02:47:47.382Z,128.30
2022-12-11T02:50:19.084Z,124.77
2022-12-11T02:52:49.338Z,130.03
2022-12-11T02:55:19.008Z,124.50
2022-12-11T02:57:50.004Z,128.63
2022-12-11T03:00:19.841Z,127.17
2022-12-11T03:02:48.482Z,125.50
2022-12-11T03:05:17.230Z,125.40
2022-12-11T03:07:46.010Z,113.07
2022-12-11T03:10:16.928Z,109.27
2022-12-11T03:12:53.341Z,107.63
2022-12-11T03:15:30.903Z,117.60
2022-12-11T03:18:07.120Z,114.43
2022-12-11T03:20:40.103Z,104.63
2022-12-11T03:23:19.009Z,110.43
2022-12-11T03:25:55.044Z,108.37
2022-12-11T03:28:30.304Z,110.77
2022-12-11T03:31:02.056Z,109.03
2022-12-11T03:33:35.589Z,109.27
2022-12-11T03:36:08.853Z,111.97
2022-12-11T03:38:42.686Z,107.77
2022-12-11T03:41:13.693Z,103.57
2022-12-11T03:43:43.340Z,96.17
2022-12-11T03:46:15.506Z,102.00
2022-12-11T03:48:47.589Z,104.07
2022-12-11T03:51:17.530Z,105.87
2022-12-11T03:53:47.109Z,97.17
2022-12-11T03:56:17.370Z,105.00
2022-12-11T03:58:45.717Z,110.67
2022-12-11T04:01:15.215Z,101.63
2022-12-11T04:03:44.047Z,104.77
2022-12-11T04:06:12.432Z,111.33
2022-12-11T04:08:41.089Z,103.50
2022-12-11T04:11:26.766Z,109.17
2022-12-11T04:14:08.910Z,101.00
2022-12-11T04:16:38.469Z,103.07
2022-12-11T04:19:24.512Z,104.93
2022-12-11T04:22:10.802Z,103.53
2022-12-11T04:24:39.362Z,104.67
2022-12-11T04:27:07.826Z,106.90
2022-12-11T04:29:36.024Z,105.50
2022-12-11T04:32:06.119Z,102.47
2022-12-11T04:34:34.318Z,107.87
2022-12-11T04:37:02.675Z,102.93
2022-12-11T04:39:31.202Z,100.90
2022-12-11T04:41:59.865Z,101.93
2022-12-11T04:44:28.049Z,96.73
2022-12-11T04:46:56.441Z,95.63
2022-12-11T04:49:26.112Z,101.07
2022-12-11T04:51:54.524Z,98.07
2022-12-11T04:54:22.933Z,100.07
2022-12-11T04:56:51.356Z,91.80
2022-12-11T04:59:19.616Z,96.80
2022-12-11T05:01:48.594Z,91.20
2022-12-11T05:04:16.942Z,99.53
2022-12-11T05:06:46.548Z,96.20
2022-12-11T05:09:15.088Z,101.73
2022-12-11T05:11:43.745Z,89.47
2022-12-11T05:14:12.178Z,87.20
2022-12-11T05:16:40.491Z,82.10
2022-12-11T05:19:08.873Z,93.60
2022-12-11T05:21:37.434Z,81.07
2022-12-11T05:24:07.875Z,84.47
2022-12-11T05:26:36.357Z,89.03
2022-12-11T05:29:05.544Z,86.20
2022-12-11T05:31:33.883Z,86.27
2022-12-11T05:34:02.514Z,85.93
2022-12-11T05:36:32.420Z,83.60
2022-12-11T05:39:01.937Z,80.20
2022-12-11T05:41:33.645Z,84.87
2022-12-11T05:44:02.213Z,82.03
2022-12-11T05:46:32.115Z,85.10
2022-12-11T05:49:01.831Z,77.67
2022-12-11T05:51:31.255Z,83.23
2022-12-11T05:54:00.083Z,87.47
2022-12-11T05:56:30.561Z,83.97
2022-12-11T05:59:01.387Z,78.80
2022-12-11T06:01:32.555Z,84.87
2022-12-11T06:04:01.709Z,84.50
2022-12-11T06:06:30.299Z,79.80
2022-12-11T06:09:00.133Z,79.47
2022-12-11T06:11:30.010Z,82.13
2022-12-11T06:14:00.167Z,83.37
2022-12-11T06:16:28.550Z,78.87
2022-12-11T06:18:58.389Z,83.80
2022-12-11T06:21:28.765Z,79.90
2022-12-11T06:23:58.778Z,79.50
2022-12-11T06:26:27.789Z,74.13
2022-12-11T06:28:56.336Z,76.27
2022-12-11T06:31:26.169Z,77.50
2022-12-11T06:33:55.070Z,70.10
2022-12-11T06:36:25.397Z,76.97
2022-12-11T06:38:55.713Z,71.60
2022-12-11T06:41:24.106Z,63.73
2022-12-11T06:43:52.836Z,59.33
2022-12-11T06:46:21.757Z,59.57
2022-12-11T06:48:52.297Z,62.03
2022-12-11T06:51:22.719Z,61.50
2022-12-11T06:53:53.631Z,60.83
2022-12-11T06:56:22.536Z,59.33
2022-12-11T06:58:51.994Z,62.50
2022-12-11T07:01:22.485Z,60.90
2022-12-11T07:03:54.168Z,58.57
2022-12-11T07:06:22.493Z,60.90
2022-12-11T07:08:50.902Z,57.63
2022-12-11T07:11:20.504Z,56.70
2022-12-11T07:13:49.246Z,60.50
2022-12-11T07:16:18.787Z,61.30
2022-12-11T07:18:50.713Z,59.40
2022-12-11T07:21:21.341Z,58.03
2022-12-11T07:23:50.137Z,61.77
2022-12-11T07:26:20.451Z,60.67
2022-12-11T07:28:49.011Z,60.73
2022-12-11T07:31:19.305Z,64.63
2022-12-11T07:33:48.310Z,60.43
2022-12-11T07:36:17.230Z,58.97
2022-12-11T07:38:46.940Z,64.20
2022-12-11T07:41:17.653Z,56.60
2022-12-11T07:43:46.466Z,64.03
2022-12-11T07:46:16.557Z,55.23
2022-12-11T07:48:47.006Z,59.00
2022-12-11T07:51:16.807Z,61.40
2022-12-11T07:53:48.525Z,65.43
2022-12-11T07:56:17.014Z,60.33
2022-12-11T07:58:45.747Z,58.50
2022-12-11T08:01:16.009Z,63.63
2022-12-11T08:03:44.648Z,58.67
2022-12-11T08:06:13.276Z,60.13
2022-12-11T08:08:42.247Z,64.40
2022-12-11T08:11:14.110Z,65.87
2022-12-11T08:13:42.914Z,63.10
2022-12-11T08:16:14.348Z,62.33
2022-12-11T08:18:43.421Z,60.50
2022-12-11T08:21:13.989Z,62.07
2022-12-11T08:23:42.562Z,67.23
2022-12-11T08:26:14.941Z,65.33
2022-12-11T08:28:43.440Z,65.03
2022-12-11T08:31:13.453Z,69.17
2022-12-11T08:33:43.252Z,65.77
2022-12-11T08:36:13.238Z,66.43
2022-12-11T08:38:41.782Z,64.07
2022-12-11T08:41:14.446Z,63.23
2022-12-11T08:43:43.564Z,59.27
2022-12-11T08:46:12.504Z,61.23
2022-12-11T08:48:42.434Z,65.13
2022-12-11T08:51:14.115Z,62.17
2022-12-11T08:53:42.538Z,59.97
2022-12-11T08:56:14.635Z,62.30
2022-12-11T08:58:43.333Z,63.33
2022-12-11T09:01:14.944Z,64.30
2022-12-11T09:03:43.984Z,66.47
2022-12-11T09:06:14.991Z,72.00
2022-12-11T09:08:48.714Z,62.43
2022-12-11T09:11:23.974Z,61.97
2022-12-11T09:13:52.774Z,59.83
2022-12-11T09:16:22.850Z,58.20
2022-12-11T09:18:52.558Z,65.30
2022-12-11T09:21:22.299Z,58.60
2022-12-11T09:23:51.482Z,62.40
2022-12-11T09:26:21.520Z,59.40
2022-12-11T09:28:51.343Z,66.77
2022-12-11T09:31:23.438Z,63.77
2022-12-11T09:33:52.844Z,58.43
2022-12-11T09:36:21.105Z,64.83
2022-12-11T09:38:49.621Z,58.40
2022-12-11T09:41:40.617Z,62.07
2022-12-11T09:44:20.385Z,61.73
2022-12-11T09:46:49.748Z,66.33
2022-12-11T09:49:29.696Z,65.00
2022-12-11T09:52:08.479Z,64.47
2022-12-11T09:54:36.910Z,66.30
2022-12-11T09:57:15.653Z,66.13
2022-12-11T09:59:52.939Z,63.23
2022-12-11T10:02:32.121Z,64.00
2022-12-11T10:05:10.196Z,66.90
2022-12-11T10:07:47.554Z,61.60
2022-12-11T10:10:26.003Z,62.37
2022-12-11T10:13:03.736Z,69.43
2022-12-11T10:15:40.960Z,68.10
2022-12-11T10:18:15.205Z,72.00
2022-12-11T10:20:45.327Z,67.83
2022-12-11T10:23:19.913Z,75.73
2022-12-11T10:25:54.679Z,72.60
2022-12-11T10:28:24.700Z,67.67
2022-12-11T10:31:00.668Z,75.10
2022-12-11T10:33:35.816Z,73.07
2022-12-11T10:36:05.196Z,79.03
2022-12-11T10:38:34.586Z,77.07
2022-12-11T10:41:04.081Z,73.07
2022-12-11T10:43:39.913Z,77.70
2022-12-11T10:46:16.020Z,70.67
2022-12-11T10:48:47.898Z,75.70
2022-12-11T10:51:16.581Z,73.23
2022-12-11T10:53:45.225Z,69.00
2022-12-11T10:56:14.505Z,83.63
2022-12-11T10:58:51.644Z,76.60
2022-12-11T11:01:23.060Z,78.07
2022-12-11T11:03:57.918Z,75.73
2022-12-11T11:06:27.585Z,70.03
2022-12-11T11:08:57.465Z,70.27
2022-12-11T11:11:29.293Z,71.83
2022-12-11T11:14:14.908Z,77.47
2022-12-11T11:16:45.245Z,74.93
2022-12-11T11:19:21.519Z,64.53
2022-12-11T11:21:52.452Z,61.77
2022-12-11T11:24:28.480Z,60.13
2022-12-11T11:27:12.943Z,61.13
2022-12-11T11:29:46.701Z,64.00
2022-12-11T11:32:23.130Z,53.67
2022-12-11T11:34:51.560Z,65.47
2022-12-11T11:37:31.888Z,71.63
2022-12-11T11:40:07.019Z,73.37
2022-12-11T11:42:44.132Z,68.20
2022-12-11T11:45:17.554Z,73.40
2022-12-11T11:47:56.223Z,78.37
2022-12-11T11:50:29.770Z,68.87
2022-12-11T11:53:06.137Z,62.70
2022-12-11T11:55:43.711Z,58.70
2022-12-11T11:58:19.366Z,60.47
2022-12-11T12:00:48.918Z,65.47
2022-12-11T12:03:19.606Z,62.07
2022-12-11T12:05:53.245Z,64.60
2022-12-11T12:08:35.182Z,63.97
2022-12-11T12:11:10.269Z,59.70
2022-12-11T12:13:50.500Z,58.13
2022-12-11T12:16:52.197Z,62.07
2022-12-11T12:19:30.623Z,63.17
2022-12-11T12:22:09.436Z,61.70
2022-12-11T12:24:50.317Z,66.93
2022-12-11T12:27:50.928Z,58.27
2022-12-11T12:30:18.814Z,53.67
2022-12-11T12:33:04.757Z,48.50
2022-12-11T12:35:37.192Z,45.90
2022-12-11T12:38:11.226Z,43.13
2022-12-11T12:40:49.599Z,43.50
2022-12-11T12:43:41.523Z,43.00
2022-12-11T12:46:22.141Z,47.63
2022-12-11T12:48:53.405Z,43.30
2022-12-11T12:51:21.923Z,46.20
2022-12-11T12:53:56.842Z,43.13
2022-12-11T12:56:25.849Z,44.17
2022-12-11T12:58:54.381Z,45.37
2022-12-11T13:01:25.551Z,44.57
2022-12-11T13:03:59.147Z,46.10
2022-12-11T13:06:33.839Z,44.37
2022-12-11T13:09:14.595Z,43.13
2022-12-11T13:11:43.328Z,43.87
2022-12-11T13:14:28.531Z,45.53
2022-12-11T13:17:09.557Z,47.20
2022-12-11T13:19:42.723Z,44.50
2022-12-11T13:22:24.571Z,53.23
2022-12-11T13:25:01.778Z,51.57
2022-12-11T13:27:39.076Z,52.20
2022-12-11T13:30:09.567Z,53.97
2022-12-11T13:32:38.305Z,60.77
2022-12-11T13:35:15.310Z,59.13
2022-12-11T13:37:45.356Z,60.17
2022-12-11T13:40:20.450Z,57.57
2022-12-11T13:42:51.999Z,57.97
2022-12-11T13:45:23.973Z,55.13
2022-12-11T13:47:52.392Z,59.63
2022-12-11T13:50:26.446Z,56.50
2022-12-11T13:52:55.661Z,57.13
2022-12-11T13:55:26.501Z,51.33
2022-12-11T13:57:54.958Z,54.37
2022-12-11T14:00:25.657Z,49.50
2022-12-11T14:02:56.466Z,50.37
2022-12-11T14:05:26.320Z,50.20
2022-12-11T14:07:57.377Z,45.73
2022-12-11T14:10:27.781Z,43.00
2022-12-11T14:13:00.983Z,38.97
2022-12-11T14:15:31.746Z,37.03
2022-12-11T14:18:01.349Z,35.27
2022-12-11T14:20:33.185Z,36.43
2022-12-11T14:23:07.046Z,34.93
2022-12-11T14:25:35.436Z,35.90
2022-12-11T14:28:04.209Z,35.07
2022-12-11T14:30:47.365Z,37.57
2022-12-11T14:33:18.064Z,36.67
2022-12-11T14:35:48.836Z,35.80
2022-12-11T14:38:20.894Z,39.37
2022-12-11T14:40:54.364Z,37.63
2022-12-11T14:43:27.301Z,42.37
2022-12-11T14:45:59.185Z,40.60
2022-12-11T14:48:30.056Z,43.30
2022-12-11T14:51:04.984Z,47.30
2022-12-11T14:53:37.406Z,49.37
2022-12-11T14:56:08.361Z,47.40
2022-12-11T14:58:44.353Z,50.03
2022-12-11T15:01:25.792Z,48.40
2022-12-11T15:04:05.276Z,44.97
2022-12-11T15:06:36.952Z,46.53
2022-12-11T15:09:18.629Z,43.87
2022-12-11T15:11:48.284Z,42.70
2022-12-11T15:14:19.293Z,44.10
2022-12-11T15:16:50.302Z,43.30
2022-12-11T15:19:25.466Z,52.90
2022-12-11T15:21:55.731Z,56.83
2022-12-11T15:24:31.380Z,59.63
2022-12-11T15:27:01.145Z,62.27
2022-12-11T15:29:35.155Z,61.67
2022-12-11T15:32:19.590Z,63.57
2022-12-11T15:34:50.025Z,57.07
2022-12-11T15:37:24.857Z,61.57
2022-12-11T15:39:53.690Z,58.03
2022-12-11T15:42:26.949Z,58.03
2022-12-11T15:44:56.451Z,58.87
2022-12-11T15:47:26.614Z,59.67
2022-12-11T15:49:56.553Z,59.40
2022-12-11T15:52:26.418Z,59.53
2022-12-11T15:54:54.924Z,55.80
2022-12-11T15:57:25.307Z,53.20
2022-12-11T15:59:55.116Z,58.50
2022-12-11T16:02:24.521Z,54.57
2022-12-11T16:04:52.996Z,51.60
2022-12-11T16:07:23.810Z,54.23
2022-12-11T16:09:54.327Z,52.00
2022-12-11T16:12:22.727Z,54.07
2022-12-11T16:14:51.171Z,56.70
2022-12-11T16:17:19.909Z,55.67
2022-12-11T16:19:48.266Z,60.33
2022-12-11T16:22:16.784Z,55.07
2022-12-11T16:24:45.237Z,57.57
2022-12-11T16:27:18.573Z,55.53
2022-12-11T16:29:49.722Z,57.83
2022-12-11T16:32:18.670Z,59.17
2022-12-11T16:34:47.114Z,54.07
2022-12-11T16:37:15.643Z,54.13
2022-12-11T16:39:45.982Z,59.83
2022-12-11T16:42:15.650Z,52.50
2022-12-11T16:44:44.442Z,53.57
2022-12-11T16:47:12.963Z,50.57
2022-12-11T16:49:42.065Z,49.60
2022-12-11T16:52:10.656Z,53.70
2022-12-11T16:54:39.207Z,47.67
2022-12-11T16:57:07.609Z,51.23
2022-12-11T16:59:37.862Z,50.53
2022-12-11T17:02:06.655Z,48.07
2022-12-11T17:04:35.048Z,50.03
2022-12-11T17:07:03.495Z,48.67
2022-12-11T17:09:31.870Z,50.63
2022-12-11T17:12:00.829Z,47.40
2022-12-11T17:14:29.129Z,48.53
2022-12-11T17:16:58.915Z,49.13
2022-12-11T17:19:27.373Z,49.70
2022-12-11T17:21:56.374Z,50.80
2022-12-11T17:24:24.697Z,47.60
2022-12-11T17:26:53.760Z,48.87
2022-12-11T17:29:22.297Z,48.00
2022-12-11T17:31:50.487Z,45.73
2022-12-11T17:34:20.254Z,49.20
2022-12-11T17:36:48.821Z,45.00
2022-12-11T17:39:17.331Z,48.03
2022-12-11T17:41:45.938Z,45.43
2022-12-11T17:44:14.196Z,41.77
2022-12-11T17:46:43.228Z,43.00
2022-12-11T17:49:11.520Z,42.20
2022-12-11T17:51:41.630Z,42.73
2022-12-11T17:54:09.898Z,43.03
2022-12-11T17:56:38.320Z,41.53
2022-12-11T17:59:06.756Z,40.30
2022-12-11T18:01:35.579Z,39.37
2022-12-11T18:04:04.735Z,42.17
2022-12-11T18:06:33.224Z,42.83
2022-12-11T18:09:02.747Z,39.67
2022-12-11T18:11:31.375Z,39.83
2022-12-11T18:13:59.942Z,41.93
2022-12-11T18:16:29.992Z,45.27
2022-12-11T18:18:58.457Z,41.60
2022-12-11T18:21:29.364Z,42.17
2022-12-11T18:23:57.968Z,42.90
2022-12-11T18:26:27.513Z,45.30
2022-12-11T18:28:56.064Z,44.57
2022-12-11T18:31:24.988Z,43.77
2022-12-11T18:33:53.852Z,45.80
2022-12-11T18:36:22.397Z,45.83
2022-12-11T18:38:50.952Z,43.67
2022-12-11T18:41:20.262Z,47.17
2022-12-11T18:43:50.188Z,45.40
2022-12-11T18:46:20.489Z,43.43
2022-12-11T18:48:49.742Z,44.17
2022-12-11T18:51:22.009Z,44.60
2022-12-11T18:53:50.744Z,46.07
2022-12-11T18:56:20.246Z,43.23
2022-12-11T18:58:49.873Z,43.00
2022-12-11T19:01:20.695Z,47.70
2022-12-11T19:03:49.844Z,47.83
2022-12-11T19:06:20.056Z,44.17
2022-12-11T19:08:48.712Z,46.10
2022-12-11T19:11:18.127Z,48.23
2022-12-11T19:13:47.208Z,43.17
2022-12-11T19:16:22.933Z,48.53
2022-12-11T19:18:51.942Z,46.13
2022-12-11T19:21:20.557Z,41.77
2022-12-11T19:23:49.475Z,44.60
2022-12-11T19:26:19.933Z,42.53
2022-12-11T19:28:49.065Z,43.30
2022-12-11T19:31:20.932Z,48.83
2022-12-11T19:33:49.524Z,44.67
2022-12-11T19:36:19.344Z,45.77
2022-12-11T19:38:47.624Z,46.10
2022-12-11T19:41:17.793Z,45.37
2022-12-11T19:43:46.614Z,46.83
2022-12-11T19:46:15.859Z,43.07
2022-12-11T19:48:45.755Z,43.37
2022-12-11T19:51:15.959Z,44.77
2022-12-11T19:53:46.560Z,47.30
2022-12-11T19:56:15.538Z,43.83
2022-12-11T19:58:44.208Z,42.40
2022-12-11T20:01:19.656Z,40.73
2022-12-11T20:03:50.006Z,45.22
2022-12-11T20:06:18.345Z,43.13
2022-12-11T20:08:46.810Z,45.77
2022-12-11T20:11:18.730Z,45.43
2022-12-11T20:13:48.087Z,44.70
2022-12-11T20:16:20.006Z,41.20
2022-12-11T20:18:58.471Z,44.63
2022-12-11T20:21:27.272Z,47.63
2022-12-11T20:23:55.673Z,53.33
2022-12-11T20:26:25.582Z,49.13
2022-12-11T20:28:54.444Z,53.13
2022-12-11T20:31:24.971Z,47.73
2022-12-11T20:33:54.574Z,50.50
2022-12-11T20:36:25.956Z,51.07
2022-12-11T20:38:54.781Z,47.77
2022-12-11T20:41:24.559Z,49.90
2022-12-11T20:43:54.223Z,42.73
2022-12-11T20:46:24.961Z,44.87
2022-12-11T20:48:53.520Z,45.93
2022-12-11T20:51:26.473Z,46.93
2022-12-11T20:53:57.559Z,44.77
2022-12-11T20:56:27.140Z,46.23
2022-12-11T20:58:55.763Z,45.80
2022-12-11T21:01:25.607Z,43.40
2022-12-11T21:03:54.540Z,45.43
2022-12-11T21:06:26.415Z,44.83
2022-12-11T21:08:55.147Z,43.13
2022-12-11T21:11:23.698Z,43.57
2022-12-11T21:13:52.814Z,45.23
2022-12-11T21:16:21.961Z,47.83
2022-12-11T21:18:50.456Z,43.53
2022-12-11T21:21:19.564Z,48.97
2022-12-11T21:23:49.373Z,42.07
2022-12-11T21:26:18.012Z,47.13
2022-12-11T21:28:46.452Z,44.40
2022-12-11T21:31:16.692Z,43.93
2022-12-11T21:33:45.726Z,45.67
2022-12-11T21:36:14.956Z,46.77
2022-12-11T21:38:44.839Z,47.13
2022-12-11T21:41:16.365Z,47.60
2022-12-11T21:46:33.961Z,43.70
2022-12-11T21:49:02.686Z,43.83
2022-12-11T21:51:37.175Z,45.23
2022-12-11T21:54:09.243Z,44.63
2022-12-11T21:56:39.016Z,44.70
2022-12-11T21:59:07.466Z,46.00
2022-12-11T22:01:38.349Z,47.90
2022-12-11T22:04:06.847Z,49.07
2022-12-11T22:06:35.535Z,45.00
2022-12-11T22:09:05.188Z,45.87
2022-12-11T22:11:35.109Z,45.00
2022-12-11T22:14:06.838Z,44.43
2022-12-11T22:16:36.066Z,47.07
2022-12-11T22:19:04.311Z,42.07
2022-12-11T22:21:32.604Z,50.10
2022-12-11T22:24:01.141Z,45.67
2022-12-11T22:26:29.840Z,46.00
2022-12-11T22:28:58.327Z,48.63
2022-12-11T22:31:29.124Z,42.80
2022-12-11T22:33:57.848Z,44.27
2022-12-11T22:36:27.785Z,43.07
2022-12-11T22:38:56.813Z,47.23
2022-12-11T22:41:27.028Z,47.37
2022-12-11T22:43:55.930Z,46.50
2022-12-11T22:46:26.457Z,44.70
2022-12-11T22:48:56.208Z,42.53
2022-12-11T22:51:24.614Z,45.40
2022-12-11T22:53:53.348Z,45.07
2022-12-11T22:56:21.648Z,44.03
2022-12-11T22:58:49.883Z,42.40
2022-12-11T23:01:19.999Z,43.17
2022-12-11T23:03:48.884Z,45.47
2022-12-11T23:06:20.557Z,45.67
2022-12-11T23:08:49.229Z,44.77
2022-12-11T23:11:19.672Z,47.27
2022-12-11T23:13:48.289Z,47.33
2022-12-11T23:16:17.134Z,48.10
2022-12-11T23:18:45.503Z,45.23
2022-12-11T23:21:14.483Z,42.53
2022-12-11T23:23:44.193Z,43.07
2022-12-11T23:26:13.920Z,44.30
2022-12-11T23:28:42.768Z,41.53
2022-12-11T23:31:11.271Z,46.73
2022-12-11T23:33:40.121Z,45.07
2022-12-11T23:36:09.216Z,41.30
2022-12-11T23:38:37.499Z,43.13
2022-12-11T23:41:09.189Z,43.40
2022-12-11T23:43:38.539Z,42.27
2022-12-11T23:46:11.503Z,43.47
2022-12-11T23:48:40.126Z,42.80
2022-12-11T23:51:08.614Z,41.70
2022-12-11T23:53:37.621Z,40.47
2022-12-11T23:56:09.713Z,43.17
2022-12-11T23:58:38.858Z,41.00
